.
WxDataArchive / Data Records for 2012-12-12
2012-12-11 December 2012 2012-12-13

Data Records for Wednesday, 12 December 2012

Time	Temp	Chill	HIndex	Humid	Dewpt	 Wind 	HiWind	WindDir	Rain 	Barom 
-----	----	-----	------	-----	-----	------	------	-------	-----	----- 
00:00	26.1	26.1	26.1	86	22.5	0	1	248	0.00	30.220 
00:05	26.1	26.1	26.1	86	22.5	0	1	248	0.00	30.220 
00:10	26.1	26.1	26.1	86	22.5	0	1	248	0.00	30.220 
00:15	26.1	26.1	26.1	86	22.5	0	1	248	0.00	30.221 
00:20	26.1	26.1	26.1	86	22.5	0	2	248	0.00	30.221 
00:25	26.4	26.4	26.4	86	22.8	0	3	248	0.00	30.221 
00:30	26.6	26.6	26.6	86	23.0	0	3	248	0.00	30.223 
00:35	26.6	26.6	26.6	86	23.0	0	2	248	0.00	30.223 
00:40	26.6	26.6	26.6	85	22.7	0	1	248	0.00	30.223 
00:45	26.6	26.6	26.6	85	22.7	0	1	248	0.00	30.219 
00:50	26.7	26.7	26.7	85	22.8	0	2	248	0.00	30.219 
00:55	26.7	26.7	26.7	85	22.8	0	2	248	0.00	30.219 
01:00	26.9	26.9	26.9	85	23.0	1	4	248	0.00	30.219 
01:05	27.0	27.0	27.0	84	22.8	0	2	248	0.00	30.219 
01:10	27.0	27.0	27.0	84	22.8	0	3	248	0.00	30.219 
01:15	27.2	27.2	27.2	84	23.0	0	3	248	0.00	30.220 
01:20	27.2	27.2	27.2	84	23.0	0	2	248	0.00	30.220 
01:25	27.2	27.2	27.2	83	22.7	0	2	248	0.00	30.220 
01:30	27.2	27.2	27.2	83	22.7	0	4	248	0.00	30.227 
01:35	27.3	27.3	27.3	83	22.8	0	2	248	0.00	30.227 
01:40	27.3	27.3	27.3	83	22.8	0	2	248	0.00	30.227 
01:45	27.3	27.3	27.3	82	22.5	0	2	248	0.00	30.232 
01:50	27.3	27.3	27.3	82	22.5	0	2	248	0.00	30.232 
01:55	27.2	27.2	27.2	82	22.4	0	1	248	0.00	30.232 
02:00	27.2	27.2	27.2	82	22.4	0	2	248	0.00	30.236 
02:05	27.0	27.0	27.0	82	22.3	0	1	248	0.00	30.236 
02:10	27.0	27.0	27.0	82	22.3	0	1	248	0.00	30.236 
02:15	27.0	27.0	27.0	82	22.3	0	1	248	0.00	30.245 
02:20	26.9	26.9	26.9	82	22.2	0	2	248	0.00	30.245 
02:25	26.9	26.9	26.9	82	22.2	0	2	248	0.00	30.245 
02:30	26.7	26.7	26.7	82	22.0	0	1	248	0.00	30.250 
02:35	26.6	26.6	26.6	82	21.9	0	2	248	0.00	30.250 
02:40	26.4	26.4	26.4	82	21.7	0	0	---	0.00	30.250 
02:45	26.3	26.3	26.3	82	21.6	0	0	---	0.00	30.254 
02:50	26.3	26.3	26.3	82	21.6	0	1	248	0.00	30.254 
02:55	26.1	26.1	26.1	82	21.4	0	1	248	0.00	30.254 
03:00	26.0	26.0	26.0	83	21.6	0	0	---	0.00	30.262 
03:05	25.8	25.8	25.8	83	21.4	0	0	---	0.00	30.262 
03:10	25.7	25.7	25.7	83	21.3	0	0	---	0.00	30.262 
03:15	25.6	25.6	25.6	83	21.2	0	1	248	0.00	30.265 
03:20	25.4	25.4	25.4	83	21.0	0	0	---	0.00	30.265 
03:25	25.4	25.4	25.4	83	21.0	0	0	---	0.00	30.265 
03:30	25.3	25.3	25.3	84	21.2	0	0	---	0.00	30.268 
03:35	25.3	25.3	25.3	84	21.2	0	0	---	0.00	30.268 
03:40	25.1	25.1	25.1	84	21.0	0	1	248	0.00	30.268 
03:45	25.3	25.3	25.3	84	21.2	0	1	248	0.00	30.271 
03:50	25.3	25.3	25.3	84	21.2	0	1	248	0.00	30.271 
03:55	25.4	25.4	25.4	85	21.5	0	1	248	0.00	30.271 
04:00	25.6	25.6	25.6	85	21.7	0	1	248	0.00	30.268 
04:05	25.6	25.6	25.6	85	21.7	0	1	248	0.00	30.268 
04:10	25.6	25.6	25.6	85	21.7	0	1	248	0.00	30.268 
04:15	25.7	25.7	25.7	85	21.8	0	2	248	0.00	30.274 
04:20	25.7	25.7	25.7	85	21.8	0	1	248	0.00	30.274 
04:25	25.7	25.7	25.7	85	21.8	0	1	248	0.00	30.274 
04:30	25.7	25.7	25.7	85	21.8	0	2	248	0.00	30.279 
04:35	25.7	25.7	25.7	84	21.5	0	1	248	0.00	30.279 
04:40	25.7	25.7	25.7	84	21.5	0	1	248	0.00	30.279 
04:45	25.7	25.7	25.7	84	21.5	0	1	248	0.00	30.276 
04:50	25.6	25.6	25.6	84	21.5	0	2	248	0.00	30.276 
04:55	25.6	25.6	25.6	84	21.5	0	2	248	0.00	30.276 
05:00	25.6	25.6	25.6	84	21.5	0	1	248	0.00	30.281 
05:05	25.4	25.4	25.4	84	21.3	0	1	248	0.00	30.281 
05:10	25.4	25.4	25.4	84	21.3	0	1	248	0.00	30.281 
05:15	25.6	25.6	25.6	84	21.5	0	1	248	0.00	30.285 
05:20	25.4	25.4	25.4	84	21.3	0	0	---	0.00	30.285 
05:25	25.4	25.4	25.4	84	21.3	0	0	---	0.00	30.285 
05:30	25.3	25.3	25.3	84	21.2	0	0	---	0.00	30.292 
05:35	25.1	25.1	25.1	84	21.0	0	1	248	0.00	30.292 
05:40	25.0	25.0	25.0	84	20.9	0	1	248	0.00	30.292 
05:45	25.0	25.0	25.0	84	20.9	0	0	---	0.00	30.299 
05:50	24.8	24.8	24.8	84	20.7	0	1	248	0.00	30.299 
05:55	24.8	24.8	24.8	84	20.7	0	0	---	0.00	30.299 
06:00	24.8	24.8	24.8	84	20.7	0	0	---	0.00	30.301 
06:05	24.7	24.7	24.7	85	20.8	0	0	---	0.00	30.301 
06:10	24.8	24.8	24.8	85	20.9	0	1	248	0.00	30.301 
06:15	24.8	24.8	24.8	85	20.9	0	1	248	0.00	30.307 
06:20	25.0	25.0	25.0	85	21.1	0	0	---	0.00	30.307 
06:25	25.0	25.0	25.0	85	21.1	0	0	---	0.00	30.307 
06:30	25.0	25.0	25.0	85	21.1	0	1	248	0.00	30.315 
06:35	25.0	25.0	25.0	85	21.1	0	2	248	0.00	30.315 
06:40	24.8	24.8	24.8	84	20.7	0	1	248	0.00	30.315 
06:45	24.8	24.8	24.8	85	20.9	0	0	---	0.00	30.319 
06:50	24.8	24.8	24.8	84	20.7	0	1	248	0.00	30.319 
06:55	24.8	24.8	24.8	85	20.9	0	1	248	0.00	30.319 
07:00	25.0	25.0	25.0	85	21.1	0	1	248	0.00	30.323 
07:05	25.0	25.0	25.0	85	21.1	0	1	248	0.00	30.323 
07:10	25.0	25.0	25.0	84	20.9	0	0	---	0.00	30.323 
07:15	25.0	25.0	25.0	84	20.9	0	1	248	0.00	30.332 
07:20	24.8	24.8	24.8	84	20.7	0	0	---	0.00	30.332 
07:25	24.7	24.7	24.7	84	20.6	0	1	248	0.00	30.332 
07:30	24.7	24.7	24.7	84	20.6	0	0	---	0.00	30.333 
07:35	24.7	24.7	24.7	84	20.6	0	0	---	0.00	30.333 
07:40	24.5	24.5	24.5	84	20.4	0	1	248	0.00	30.333 
07:45	24.4	24.4	24.4	84	20.3	0	0	---	0.00	30.332 
07:50	24.4	24.4	24.4	84	20.3	0	1	248	0.00	30.332 
07:55	24.4	24.4	24.4	84	20.3	0	1	248	0.00	30.332 
08:00	24.4	24.4	24.4	84	20.3	0	0	---	0.00	30.336 
08:05	24.4	24.4	24.4	84	20.3	0	0	---	0.00	30.336 
08:10	24.4	24.4	24.4	85	20.6	0	0	---	0.00	30.336 
08:15	24.5	24.5	24.5	84	20.4	0	1	248	0.00	30.337 
08:20	24.5	24.5	24.5	85	20.6	0	1	248	0.00	30.337 
08:25	24.5	24.5	24.5	85	20.6	0	1	248	0.00	30.337 
08:30	24.8	24.8	24.8	85	20.9	0	2	248	0.00	30.335 
08:35	25.0	25.0	25.0	85	21.1	0	2	248	0.00	30.335 
08:40	25.3	25.3	25.3	85	21.4	0	3	248	0.00	30.335 
08:45	25.4	25.4	25.4	85	21.5	0	2	248	0.00	30.339 
08:50	25.7	25.7	25.7	85	21.8	0	3	248	0.00	30.339 
08:55	26.0	26.0	26.0	84	21.8	1	4	248	0.00	30.339 
09:00	26.3	26.3	26.3	84	22.1	0	3	248	0.00	30.349 
09:05	26.4	26.4	26.4	84	22.2	0	4	248	0.00	30.349 
09:10	26.7	26.7	26.7	84	22.5	0	2	248	0.00	30.349 
09:15	27.0	27.0	27.0	83	22.5	0	1	248	0.00	30.352 
09:20	27.3	27.3	27.3	83	22.8	1	4	248	0.00	30.352 
09:25	27.6	27.6	27.6	82	22.8	0	1	248	0.00	30.352 
09:30	28.1	28.1	28.1	81	23.0	0	3	248	0.00	30.360 
09:35	28.4	28.4	28.4	81	23.3	0	3	248	0.00	30.360 
09:40	28.7	28.7	28.7	80	23.3	1	3	248	0.00	30.360 
09:45	29.1	29.1	29.1	79	23.4	1	5	248	0.00	30.362 
09:50	29.4	29.4	29.4	78	23.4	0	3	248	0.00	30.362 
09:55	29.8	29.8	29.8	77	23.5	0	1	248	0.00	30.362 
10:00	30.3	30.3	30.3	77	24.0	0	1	248	0.00	30.364 
10:05	30.6	30.6	30.6	76	24.0	1	3	248	0.00	30.364 
10:10	31.0	31.0	31.0	75	24.0	0	4	248	0.00	30.364 
10:15	31.3	31.3	31.3	74	24.0	0	2	248	0.00	30.374 
10:20	31.8	31.8	31.8	74	24.5	0	2	248	0.00	30.374 
10:25	32.1	32.1	32.1	72	24.1	1	5	248	0.00	30.374 
10:30	32.2	32.2	32.2	72	24.2	1	3	248	0.00	30.375 
10:35	32.7	32.7	32.7	70	24.0	1	4	248	0.00	30.375 
10:40	32.9	32.9	32.9	70	24.2	0	3	248	0.00	30.375 
10:45	33.4	33.4	33.4	70	24.7	0	2	248	0.00	30.377 
10:50	33.7	33.7	33.7	69	24.6	0	3	248	0.00	30.377 
10:55	34.1	34.1	34.1	69	25.0	1	3	248	0.00	30.377 
11:00	34.4	34.4	34.4	67	24.6	1	4	248	0.00	30.376 
11:05	34.7	34.7	34.7	68	25.2	0	4	248	0.00	30.376 
11:10	35.2	35.2	35.2	67	25.4	0	2	248	0.00	30.376 
11:15	35.6	35.6	35.6	67	25.7	0	4	248	0.00	30.372 
11:20	35.9	35.9	35.9	65	25.3	0	3	248	0.00	30.372 
11:25	36.3	36.3	36.3	65	25.7	0	3	248	0.00	30.372 
11:30	36.8	36.8	36.8	64	25.8	1	4	248	0.00	30.372 
11:35	37.0	37.0	37.0	62	25.2	2	5	248	0.00	30.372 
11:40	37.3	37.3	37.3	62	25.5	1	4	248	0.00	30.372 
11:45	37.6	37.6	37.6	61	25.4	1	4	248	0.00	30.371 
11:50	37.9	37.9	37.9	59	24.9	1	4	248	0.00	30.371 
11:55	38.2	38.2	38.2	59	25.2	1	3	248	0.00	30.371 
12:00	38.5	38.5	38.5	59	25.4	1	4	248	0.00	30.370 
12:05	38.6	38.6	38.6	57	24.7	2	6	248	0.00	30.370 
12:10	38.8	38.8	38.8	57	24.9	1	4	248	0.00	30.370 
12:15	38.9	38.9	38.9	56	24.6	1	4	248	0.00	30.366 
12:20	39.1	39.1	39.1	56	24.7	1	3	248	0.00	30.366 
12:25	39.1	39.1	39.1	56	24.7	1	5	248	0.00	30.366 
12:30	39.3	39.3	39.3	57	25.4	1	3	248	0.00	30.366 
12:35	39.5	39.5	39.5	54	24.2	1	4	248	0.00	30.366 
12:40	39.6	39.6	39.6	54	24.3	1	5	248	0.00	30.366 
12:45	39.8	39.8	39.8	53	24.1	2	7	248	0.00	30.367 
12:50	39.9	39.9	39.9	53	24.2	2	5	248	0.00	30.367 
12:55	40.1	40.1	40.1	54	24.8	1	4	248	0.00	30.367 
13:00	40.1	40.1	40.1	53	24.4	1	4	248	0.00	30.367 
13:05	40.3	40.3	40.3	54	25.0	0	3	248	0.00	30.367 
13:10	40.5	40.5	40.5	52	24.3	1	3	248	0.00	30.367 
13:15	40.5	40.5	40.5	53	24.7	1	3	248	0.00	30.362 
13:20	40.6	40.6	40.6	53	24.8	1	3	248	0.00	30.362 
13:25	40.6	40.6	40.6	53	24.8	1	4	270	0.00	30.362 
13:30	40.6	40.6	40.6	51	23.9	0	2	248	0.00	30.357 
13:35	40.8	40.8	40.8	52	24.6	0	3	248	0.00	30.357 
13:40	40.8	40.8	40.8	53	25.0	1	4	248	0.00	30.357 
13:45	40.9	40.9	40.9	54	25.6	0	2	248	0.00	30.353 
13:50	40.9	40.9	40.9	52	24.6	0	2	248	0.00	30.353 
13:55	40.9	40.9	40.9	52	24.6	0	2	248	0.00	30.353 
14:00	40.9	40.9	40.9	52	24.6	0	2	248	0.00	30.351 
14:05	40.9	40.9	40.9	50	23.7	1	4	90	0.00	30.351 
14:10	40.9	40.9	40.9	51	24.2	0	5	90	0.00	30.351 
14:15	40.9	40.9	40.9	50	23.7	1	4	248	0.00	30.352 
14:20	41.1	41.1	41.1	50	23.9	1	2	248	0.00	30.352 
14:25	41.1	41.1	41.1	51	24.4	0	1	248	0.00	30.352 
14:30	41.2	41.2	41.2	51	24.5	0	2	248	0.00	30.352 
14:35	41.2	41.2	41.2	51	24.5	0	4	248	0.00	30.352 
14:40	41.2	41.2	41.2	50	24.0	0	3	248	0.00	30.352 
14:45	41.2	41.2	41.2	51	24.5	0	2	248	0.00	30.349 
14:50	41.1	41.1	41.1	51	24.4	1	5	248	0.00	30.349 
14:55	41.2	41.2	41.2	52	24.9	0	3	225	0.00	30.349 
15:00	41.1	41.1	41.1	51	24.4	1	3	248	0.00	30.346 
15:05	41.2	41.2	41.2	49	23.5	1	5	248	0.00	30.346 
15:10	41.2	41.2	41.2	50	24.0	0	3	248	0.00	30.346 
15:15	41.2	41.2	41.2	50	24.0	0	2	248	0.00	30.343 
15:20	41.2	41.2	41.2	50	24.0	0	3	248	0.00	30.343 
15:25	41.2	41.2	41.2	50	24.0	0	2	248	0.00	30.343 
15:30	41.1	41.1	41.1	52	24.8	0	3	248	0.00	30.344 
15:35	40.9	40.9	40.9	52	24.6	1	4	112	0.00	30.344 
15:40	40.8	40.8	40.8	53	25.0	0	1	112	0.00	30.344 
15:45	40.9	40.9	40.9	52	24.6	0	3	248	0.00	30.342 
15:50	40.9	40.9	40.9	51	24.2	1	3	270	0.00	30.342 
15:55	40.9	40.9	40.9	51	24.2	0	2	270	0.00	30.342 
16:00	40.9	40.9	40.9	51	24.2	0	3	270	0.00	30.346 
16:05	40.6	40.6	40.6	52	24.4	1	3	270	0.00	30.346 
16:10	40.3	40.3	40.3	53	24.5	1	3	270	0.00	30.346 
16:15	40.1	40.1	40.1	53	24.4	0	2	112	0.00	30.347 
16:20	39.9	39.9	39.9	54	24.6	0	3	112	0.00	30.347 
16:25	39.6	39.6	39.6	54	24.3	0	3	270	0.00	30.347 
16:30	39.5	39.5	39.5	54	24.2	0	2	270	0.00	30.351 
16:35	39.3	39.3	39.3	55	24.5	0	3	68	0.00	30.351 
16:40	39.1	39.1	39.1	55	24.3	0	2	68	0.00	30.351 
16:45	38.8	38.8	38.8	56	24.5	0	2	45	0.00	30.351 
16:50	38.5	38.5	38.5	56	24.2	0	1	45	0.00	30.351 
16:55	38.2	38.2	38.2	57	24.3	0	1	45	0.00	30.351 
17:00	37.9	37.9	37.9	58	24.5	0	1	45	0.00	30.352 
17:05	37.6	37.6	37.6	58	24.2	0	0	---	0.00	30.352 
17:10	37.2	37.2	37.2	59	24.2	0	0	---	0.00	30.352 
17:15	36.9	36.9	36.9	59	23.9	0	0	---	0.00	30.356 
17:20	36.5	36.5	36.5	60	24.0	0	0	---	0.00	30.356 
17:25	36.2	36.2	36.2	60	23.7	0	0	---	0.00	30.356 
17:30	35.9	35.9	35.9	60	23.4	0	0	---	0.00	30.358 
17:35	35.8	35.8	35.8	61	23.7	0	0	---	0.00	30.358 
17:40	35.5	35.5	35.5	61	23.4	0	0	---	0.00	30.358 
17:45	35.0	35.0	35.0	61	22.9	0	0	---	0.00	30.359 
17:50	34.6	34.6	34.6	61	22.6	0	0	---	0.00	30.359 
17:55	34.1	34.1	34.1	62	22.5	0	0	---	0.00	30.359 
18:00	33.7	33.7	33.7	64	22.8	0	0	---	0.00	30.362 
18:05	33.2	33.2	33.2	64	22.4	0	0	---	0.00	30.362 
18:10	32.9	32.9	32.9	65	22.4	0	0	---	0.00	30.362 
18:15	32.5	32.5	32.5	65	22.1	0	0	---	0.00	30.365 
18:20	32.1	32.1	32.1	68	22.7	0	0	---	0.00	30.365 
18:25	31.6	31.6	31.6	69	22.6	0	0	---	0.00	30.365 
18:30	31.3	31.3	31.3	70	22.7	0	0	---	0.00	30.372 
18:35	31.0	31.0	31.0	71	22.7	0	0	---	0.00	30.372 
18:40	30.7	30.7	30.7	72	22.8	0	0	---	0.00	30.372 
18:45	30.4	30.4	30.4	72	22.5	0	0	---	0.00	30.375 
18:50	30.1	30.1	30.1	73	22.5	0	0	---	0.00	30.375 
18:55	30.0	30.0	30.0	73	22.4	0	0	---	0.00	30.375 
19:00	29.8	29.8	29.8	75	22.9	0	0	---	0.00	30.376 
19:05	29.5	29.5	29.5	75	22.6	0	0	---	0.00	30.376 
19:10	29.4	29.4	29.4	74	22.2	0	0	---	0.00	30.376 
19:15	29.1	29.1	29.1	74	21.9	0	0	---	0.00	30.381 
19:20	28.8	28.8	28.8	75	21.9	0	0	---	0.00	30.381 
19:25	28.5	28.5	28.5	76	21.9	0	0	---	0.00	30.381 
19:30	28.4	28.4	28.4	76	21.8	0	0	---	0.00	30.382 
19:35	28.1	28.1	28.1	77	21.8	0	0	---	0.00	30.382 
19:40	27.9	27.9	27.9	78	21.9	0	0	---	0.00	30.382 
19:45	27.9	27.9	27.9	78	21.9	0	0	---	0.00	30.382 
19:50	28.1	28.1	28.1	79	22.4	0	0	---	0.00	30.382 
19:55	27.9	27.9	27.9	79	22.2	0	0	---	0.00	30.382 
20:00	27.8	27.8	27.8	79	22.2	0	0	---	0.00	30.385 
20:05	27.6	27.6	27.6	79	22.0	0	0	---	0.00	30.385 
20:10	27.5	27.5	27.5	80	22.2	0	0	---	0.00	30.385 
20:15	27.3	27.3	27.3	80	22.0	0	0	---	0.00	30.389 
20:20	27.2	27.2	27.2	81	22.2	0	0	---	0.00	30.389 
20:25	27.2	27.2	27.2	81	22.2	0	0	---	0.00	30.389 
20:30	27.0	27.0	27.0	81	22.0	0	0	---	0.00	30.394 
20:35	26.9	26.9	26.9	81	21.9	0	0	---	0.00	30.394 
20:40	26.9	26.9	26.9	81	21.9	0	0	---	0.00	30.394 
20:45	26.7	26.7	26.7	82	22.0	0	0	---	0.00	30.394 
20:50	26.7	26.7	26.7	82	22.0	0	0	---	0.00	30.394 
20:55	26.6	26.6	26.6	82	21.9	0	0	---	0.00	30.394 
21:00	26.4	26.4	26.4	83	22.0	0	0	---	0.00	30.392 
21:05	26.4	26.4	26.4	83	22.0	0	0	---	0.00	30.392 
21:10	26.3	26.3	26.3	82	21.6	0	0	---	0.00	30.392 
21:15	26.1	26.1	26.1	82	21.4	0	0	---	0.00	30.392 
21:20	26.0	26.0	26.0	83	21.6	0	0	---	0.00	30.392 
21:25	25.8	25.8	25.8	83	21.4	0	0	---	0.00	30.392 
21:30	25.7	25.7	25.7	83	21.3	0	0	---	0.00	30.393 
21:35	25.7	25.7	25.7	84	21.5	0	0	---	0.00	30.393 
21:40	25.6	25.6	25.6	84	21.5	0	0	---	0.00	30.393 
21:45	25.6	25.6	25.6	84	21.5	0	0	---	0.00	30.395 
21:50	25.4	25.4	25.4	84	21.3	0	0	---	0.00	30.395 
21:55	25.3	25.3	25.3	84	21.2	0	0	---	0.00	30.395 
22:00	25.3	25.3	25.3	85	21.4	0	0	---	0.00	30.399 
22:05	25.3	25.3	25.3	85	21.4	0	0	---	0.00	30.399 
22:10	25.3	25.3	25.3	85	21.4	0	0	---	0.00	30.399 
22:15	25.3	25.3	25.3	85	21.4	0	0	---	0.00	30.393 
22:20	25.1	25.1	25.1	85	21.2	0	0	---	0.00	30.393 
22:25	25.0	25.0	25.0	85	21.1	0	0	---	0.00	30.393 
22:30	25.0	25.0	25.0	85	21.1	0	0	---	0.00	30.396 
22:35	24.8	24.8	24.8	85	20.9	0	0	---	0.00	30.396 
22:40	24.8	24.8	24.8	86	21.2	0	0	---	0.00	30.396 
22:45	24.8	24.8	24.8	86	21.2	0	0	---	0.00	30.396 
22:50	24.7	24.7	24.7	86	21.1	0	0	---	0.00	30.396 
22:55	24.5	24.5	24.5	86	20.9	0	0	---	0.00	30.396 
23:00	24.7	24.7	24.7	86	21.1	0	0	---	0.00	30.396 
23:05	24.5	24.5	24.5	86	20.9	0	0	---	0.00	30.396 
23:10	24.5	24.5	24.5	86	20.9	0	0	---	0.00	30.396 
23:15	24.4	24.4	24.4	86	20.8	0	0	---	0.00	30.390 
23:20	24.5	24.5	24.5	87	21.2	0	0	---	0.00	30.390 
23:25	24.5	24.5	24.5	87	21.2	0	0	---	0.00	30.390 
23:30	24.5	24.5	24.5	87	21.2	0	0	---	0.00	30.386 
23:35	24.7	24.7	24.7	87	21.4	0	0	---	0.00	30.386 
23:40	24.7	24.7	24.7	87	21.4	0	0	---	0.00	30.386 
23:45	24.8	24.8	24.8	87	21.5	0	0	---	0.00	30.382 
23:50	25.0	25.0	25.0	87	21.7	0	0	---	0.00	30.382 
23:55	25.3	25.3	25.3	88	22.3	0	0	---	0.00	30.382 

CoCoRaHS
IN-AL-39
A2 Web Hosting
Creative Commons License
GoDaddy
search engine by freefind advanced

loaded 2018-11-17 05:35:29 • last modified 2010-11-18 10:43:29
Privacy PolicyDisclaimer
• wx.awcolley.com is powered by PmWiki v.2002016 •
• all content (unless otherwise noted) © 2018 A W Colley